Time;durP1;ratioP1;P1;durP2;ratioP2;P2;SDS_P1;SDS_P2;PMS_P1;PMS_P2;Temp;Humidity;BMP_temperature;BMP_pressure;BME280_temperature;BME280_humidity;BME280_pressure;Samples;Min_cycle;Max_cycle;Signal;HPM_P1;HPM_P2
2022/11/02 00:01:24;;;;;;;6.80;1.13;;;12.50;99.90;;;;;;5129369;27;20134;-75
2022/11/02 00:03:49;;;;;;;13.25;1.90;;;12.50;99.90;;;;;;5107009;27;20043;-74
2022/11/02 00:06:15;;;;;;;10.30;2.38;;;12.50;99.90;;;;;;5117279;27;20115;-73
2022/11/02 00:08:40;;;;;;;10.48;2.08;;;13.40;99.90;;;;;;5098934;28;20426;-75
2022/11/02 00:11:06;;;;;;;11.27;1.42;;;13.20;99.90;;;;;;5142969;27;20046;-75
2022/11/02 00:13:32;;;;;;;8.20;1.55;;;12.40;99.90;;;;;;5140093;27;20038;-74
2022/11/02 00:16:02;;;;;;;5.18;1.23;;;12.40;99.90;;;;;;5147008;27;20042;-75
2022/11/02 00:18:28;;;;;;;6.25;0.90;;;12.30;99.90;;;;;;5137619;27;20080;-74
2022/11/02 00:20:54;;;;;;;5.93;1.25;;;12.30;99.90;;;;;;5103584;27;20054;-75
2022/11/02 00:23:21;;;;;;;6.15;0.70;;;12.20;99.90;;;;;;5131999;27;20043;-77
2022/11/02 00:25:49;;;;;;;8.50;1.05;;;12.20;99.90;;;;;;5123779;27;20042;-75
2022/11/02 00:28:15;;;;;;;7.22;0.88;;;12.00;99.90;;;;;;5131014;27;20108;-75
2022/11/02 00:30:42;;;;;;;12.30;1.35;;;11.30;99.90;;;;;;5117106;27;20043;-75
2022/11/02 00:33:07;;;;;;;5.93;0.93;;;12.30;99.90;;;;;;5137431;27;20328;-75
2022/11/02 00:35:34;;;;;;;9.65;1.70;;;11.90;99.90;;;;;;5145636;27;20537;-73
2022/11/02 00:38:00;;;;;;;3.75;0.95;;;11.80;99.90;;;;;;5132652;27;20103;-74
2022/11/02 00:40:25;;;;;;;7.53;1.30;;;11.70;99.90;;;;;;5135917;27;20570;-73
2022/11/02 00:42:51;;;;;;;2.72;1.08;;;12.10;99.90;;;;;;5145025;27;20035;-75
2022/11/02 00:45:16;;;;;;;5.47;0.80;;;12.50;99.90;;;;;;5135388;27;20129;-73
2022/11/02 00:47:42;;;;;;;2.10;0.77;;;11.60;99.90;;;;;;5135453;27;20478;-74
2022/11/02 00:50:08;;;;;;;6.22;1.02;;;11.60;99.90;;;;;;5145209;27;20175;-74
2022/11/02 00:52:34;;;;;;;6.07;1.13;;;11.50;99.90;;;;;;5111035;27;20533;-75
2022/11/02 00:54:59;;;;;;;9.55;0.80;;;11.50;99.90;;;;;;5134818;27;20035;-74
2022/11/02 00:57:25;;;;;;;4.32;0.50;;;11.40;99.90;;;;;;5122586;27;20063;-74
2022/11/02 00:59:50;;;;;;;5.63;0.55;;;11.50;99.90;;;;;;5128627;27;20058;-75
2022/11/02 01:02:16;;;;;;;2.25;0.63;;;11.40;99.90;;;;;;5094603;27;20035;-73
2022/11/02 01:04:42;;;;;;;3.67;0.68;;;11.80;99.90;;;;;;5129850;27;20350;-74
2022/11/02 01:07:07;;;;;;;7.15;0.93;;;11.40;99.90;;;;;;5142793;27;20046;-74
2022/11/02 01:09:33;;;;;;;2.78;0.45;;;11.40;99.90;;;;;;5116626;27;20370;-74
2022/11/02 01:11:59;;;;;;;2.55;0.60;;;11.60;99.90;;;;;;5127501;27;20089;-74
2022/11/02 01:14:25;;;;;;;7.97;1.60;;;11.30;99.90;;;;;;5124770;27;20043;-74
2022/11/02 01:16:51;;;;;;;4.53;0.55;;;11.40;99.90;;;;;;5145657;27;20039;-73
2022/11/02 01:19:16;;;;;;;2.55;0.50;;;11.30;99.90;;;;;;5149083;27;20039;-74
2022/11/02 01:21:42;;;;;;;2.83;0.55;;;11.30;99.90;;;;;;5129855;27;20047;-74
2022/11/02 01:24:08;;;;;;;2.63;0.40;;;11.30;99.90;;;;;;5150692;27;20041;-73
2022/11/02 01:26:33;;;;;;;3.78;0.30;;;11.30;99.90;;;;;;5131384;27;20039;-73
2022/11/02 01:28:59;;;;;;;2.53;0.50;;;11.20;99.90;;;;;;5147821;27;20379;-73
2022/11/02 01:31:25;;;;;;;3.03;0.38;;;11.30;99.90;;;;;;5131868;27;20057;-73
2022/11/02 01:33:50;;;;;;;2.92;0.50;;;11.20;99.90;;;;;;5128911;27;20043;-74
2022/11/02 01:36:20;;;;;;;4.32;0.43;;;11.10;99.90;;;;;;5132289;27;20063;-73
2022/11/02 01:38:47;;;;;;;3.72;0.20;;;11.00;99.90;;;;;;5127331;27;20177;-73
2022/11/02 01:41:13;;;;;;;1.92;0.57;;;11.10;99.90;;;;;;5136623;27;20046;-73
2022/11/02 01:43:44;;;;;;;3.70;0.43;;;11.10;99.90;;;;;;5127731;27;20483;-74
2022/11/02 01:46:10;;;;;;;0.93;0.20;;;11.10;99.90;;;;;;5133378;27;20053;-73
2022/11/02 01:48:44;;;;;;;2.55;0.40;;;11.10;99.90;;;;;;5144583;27;20234;-73
2022/11/02 01:51:37;;;;;;;3.70;0.47;;;11.00;99.90;;;;;;5142635;27;20038;-74
2022/11/02 01:54:28;;;;;;;2.55;0.32;;;11.00;99.90;;;;;;5139707;27;20043;-73
2022/11/02 01:57:01;;;;;;;1.98;0.43;;;11.00;99.90;;;;;;5141857;27;20379;-73
2022/11/02 01:59:32;;;;;;;6.28;0.63;;;11.10;99.90;;;;;;5115491;27;20035;-75
2022/11/02 02:01:57;;;;;;;5.43;0.85;;;11.40;99.90;;;;;;5131045;27;20043;-74
2022/11/02 02:04:24;;;;;;;3.40;0.70;;;11.00;99.90;;;;;;5143602;27;20071;-74
2022/11/02 02:06:51;;;;;;;1.58;0.45;;;11.00;99.90;;;;;;5143830;27;20095;-74
2022/11/02 02:09:18;;;;;;;4.97;0.50;;;11.00;99.90;;;;;;5134485;27;20034;-74
2022/11/02 02:11:43;;;;;;;2.60;0.75;;;12.00;99.90;;;;;;5118864;27;20034;-73
2022/11/02 02:14:13;;;;;;;4.15;0.40;;;10.90;99.90;;;;;;5143539;27;20477;-73
2022/11/02 02:16:48;;;;;;;2.50;0.68;;;10.90;99.90;;;;;;5115092;27;20123;-75
2022/11/02 02:19:43;;;;;;;3.67;0.80;;;10.90;99.90;;;;;;5132903;27;20070;-74
2022/11/02 02:22:22;;;;;;;5.47;0.82;;;10.90;99.90;;;;;;5092627;27;20055;-75
2022/11/02 02:24:56;;;;;;;5.13;0.82;;;10.90;99.90;;;;;;5106534;27;20038;-74
2022/11/02 02:27:37;;;;;;;;;;;10.90;99.90;;;;;;5131886;27;20404;-74
2022/11/02 02:30:08;;;;;;;3.58;0.60;;;10.90;99.90;;;;;;5130511;27;19927;-75
2022/11/02 02:32:39;;;;;;;2.83;0.88;;;10.90;99.90;;;;;;5126237;27;20050;-75
2022/11/02 02:35:16;;;;;;;10.25;1.38;;;10.90;99.90;;;;;;5124919;27;20055;-75
2022/11/02 02:37:50;;;;;;;4.80;1.00;;;10.90;99.90;;;;;;5145644;27;20047;-74
2022/11/02 02:40:26;;;;;;;6.47;0.82;;;10.70;99.90;;;;;;5146001;27;20043;-74
2022/11/02 02:42:56;;;;;;;8.93;1.45;;;10.90;99.90;;;;;;5113386;27;20388;-74
2022/11/02 02:45:21;;;;;;;6.43;1.58;;;10.90;99.90;;;;;;5147048;27;20039;-73
2022/11/02 02:48:00;;;;;;;6.85;1.10;;;11.00;99.90;;;;;;5131115;27;20039;-74
2022/11/02 02:50:30;;;;;;;5.35;1.10;;;11.00;99.90;;;;;;5143610;27;20035;-74
2022/11/02 02:53:00;;;;;;;5.90;0.90;;;11.00;99.90;;;;;;5133430;27;20103;-74
2022/11/02 02:55:34;;;;;;;6.97;1.20;;;11.00;99.90;;;;;;5132292;27;20676;-74
2022/11/02 02:58:02;;;;;;;4.78;0.80;;;11.00;99.90;;;;;;5131558;27;20563;-75
2022/11/02 03:00:29;;;;;;;6.47;1.20;;;11.00;99.90;;;;;;5131324;27;20176;-75
2022/11/02 03:03:00;;;;;;;9.32;1.23;;;10.90;99.90;;;;;;5134896;27;20293;-75
2022/11/02 03:05:36;;;;;;;2.08;0.50;;;10.90;99.90;;;;;;5134536;27;20039;-75
2022/11/02 03:08:09;;;;;;;3.33;0.50;;;10.90;99.90;;;;;;5113427;27;20049;-75
2022/11/02 03:10:43;;;;;;;2.65;0.75;;;10.90;99.90;;;;;;5142756;27;20122;-74
2022/11/02 03:13:40;;;;;;;3.42;0.60;;;10.90;99.90;;;;;;5142296;27;20058;-75
2022/11/02 03:16:30;;;;;;;2.95;0.60;;;10.80;99.90;;;;;;5139475;27;20045;-75
2022/11/02 03:19:18;;;;;;;3.35;0.40;;;10.80;99.90;;;;;;5143686;27;20050;-74
2022/11/02 03:21:47;;;;;;;7.13;0.30;;;11.20;99.90;;;;;;5142428;27;20391;-73
2022/11/02 03:24:17;;;;;;;6.65;0.35;;;11.30;99.90;;;;;;5131491;27;20050;-74
2022/11/02 03:27:11;;;;;;;3.78;0.70;;;10.70;99.90;;;;;;5145510;27;20477;-74
2022/11/02 03:29:48;;;;;;;5.63;0.68;;;10.70;99.90;;;;;;5128957;27;20064;-74
2022/11/02 03:32:24;;;;;;;5.38;0.95;;;10.70;99.90;;;;;;5118906;27;20052;-73
2022/11/02 03:34:57;;;;;;;9.63;0.60;;;10.90;99.90;;;;;;5118689;27;20445;-75
2022/11/02 03:37:36;;;;;;;2.70;0.47;;;10.70;99.90;;;;;;5122963;27;20141;-74
2022/11/02 03:40:06;;;;;;;6.68;1.25;;;10.60;99.90;;;;;;5122140;27;20486;-75
2022/11/02 03:42:34;;;;;;;5.93;0.90;;;10.60;99.90;;;;;;5102450;27;20075;-74
2022/11/02 03:45:13;;;;;;;5.32;0.77;;;10.60;99.90;;;;;;5126562;27;20134;-74
2022/11/02 03:47:44;;;;;;;4.97;0.73;;;10.60;99.90;;;;;;5103220;28;20114;-73
2022/11/02 03:50:12;;;;;;;7.07;0.95;;;10.60;99.90;;;;;;5124033;27;20027;-74
2022/11/02 03:52:41;;;;;;;5.15;0.90;;;10.80;99.90;;;;;;5121151;27;20417;-73
2022/11/02 03:55:21;;;;;;;7.43;1.13;;;10.60;99.90;;;;;;5126728;27;20031;-74
2022/11/02 03:57:51;;;;;;;9.35;1.10;;;10.60;99.90;;;;;;5117987;27;20039;-74
2022/11/02 04:00:20;;;;;;;5.88;1.45;;;10.60;99.90;;;;;;5118336;27;20498;-74
2022/11/02 04:02:48;;;;;;;6.70;1.20;;;10.60;99.90;;;;;;5127213;27;20062;-75
2022/11/02 04:05:15;;;;;;;9.73;1.20;;;10.60;99.90;;;;;;5126736;27;20027;-75
2022/11/02 04:10:31;;;;;;;7.68;1.38;;;10.60;99.90;;;;;;5126472;27;20043;-75
2022/11/02 04:15:41;;;;;;;7.35;0.82;;;10.60;99.90;;;;;;5117989;28;20047;-75
2022/11/02 04:20:51;;;;;;;10.55;1.08;;;10.60;99.90;;;;;;5120366;28;20039;-75
2022/11/02 04:26:02;;;;;;;8.68;1.08;;;10.70;99.90;;;;;;5120700;28;20058;-75
2022/11/02 04:28:28;;;;;;;5.13;0.80;;;10.80;99.90;;;;;;5117862;28;20426;-73
2022/11/02 04:30:54;;;;;;;10.07;1.05;;;11.40;99.90;;;;;;5124553;27;20138;-75
2022/11/02 04:33:31;;;;;;;13.10;1.33;;;10.70;99.90;;;;;;5114394;27;20058;-75
2022/11/02 04:36:02;;;;;;;9.35;1.75;;;10.80;99.90;;;;;;5116450;27;20038;-78
2022/11/02 04:38:41;;;;;;;4.68;0.95;;;10.70;99.90;;;;;;5140598;27;20797;-76
2022/11/02 04:43:51;;;;;;;;;;;10.20;99.90;;;;;;5141550;27;20070;-76
2022/11/02 04:46:17;;;;;;;10.73;1.50;;;10.60;99.90;;;;;;5117419;27;20382;-75
2022/11/02 04:48:43;;;;;;;8.68;1.08;;;10.50;99.90;;;;;;5132380;27;20041;-76
2022/11/02 04:51:08;;;;;;;9.57;1.20;;;10.80;99.90;;;;;;5134761;27;21462;-75
2022/11/02 04:53:34;;;;;;;10.07;1.38;;;10.60;99.90;;;;;;5114047;27;20115;-73
2022/11/02 04:56:00;;;;;;;5.80;0.80;;;10.50;99.90;;;;;;5141042;27;20050;-76
2022/11/02 04:58:25;;;;;;;7.80;0.90;;;10.50;99.90;;;;;;5140608;27;20031;-76
2022/11/02 05:00:51;;;;;;;6.65;1.40;;;10.50;99.90;;;;;;5141179;27;20490;-75
2022/11/02 05:03:16;;;;;;;7.70;1.55;;;10.50;99.90;;;;;;5146180;27;20417;-75
2022/11/02 05:05:42;;;;;;;6.28;1.10;;;10.60;99.90;;;;;;5124898;27;20542;-73
2022/11/02 05:08:08;;;;;;;10.57;1.33;;;10.50;99.90;;;;;;5125742;27;20040;-76
2022/11/02 05:10:34;;;;;;;8.27;1.80;;;10.50;99.90;;;;;;5114741;27;20466;-76
2022/11/02 05:13:00;;;;;;;7.15;1.40;;;10.50;99.90;;;;;;5142876;27;20035;-74
2022/11/02 05:15:25;;;;;;;7.50;1.55;;;10.50;99.90;;;;;;5125942;27;20039;-75
2022/11/02 05:17:51;;;;;;;8.02;1.30;;;11.10;99.90;;;;;;5113182;27;20082;-76
2022/11/02 05:20:17;;;;;;;10.48;1.73;;;10.60;99.90;;;;;;5146247;27;20036;-75
2022/11/02 05:22:43;;;;;;;6.82;1.10;;;10.50;99.90;;;;;;5144191;27;20031;-75
2022/11/02 05:25:09;;;;;;;6.00;0.98;;;10.50;99.90;;;;;;5133048;27;20082;-73
2022/11/02 05:27:35;;;;;;;6.15;1.30;;;10.50;99.90;;;;;;5128313;27;20030;-73
2022/11/02 05:30:01;;;;;;;11.45;1.58;;;10.50;99.90;;;;;;5129554;27;20665;-74
2022/11/02 05:32:27;;;;;;;11.93;1.70;;;10.50;99.90;;;;;;5130841;27;20043;-74
2022/11/02 05:34:52;;;;;;;9.45;1.58;;;10.50;99.90;;;;;;5119109;27;20076;-73
2022/11/02 05:37:18;;;;;;;12.73;1.85;;;11.10;99.90;;;;;;5140836;27;20130;-73
2022/11/02 05:39:44;;;;;;;8.05;1.02;;;10.50;99.90;;;;;;5121804;27;20039;-73
2022/11/02 05:42:10;;;;;;;12.15;1.95;;;10.50;99.90;;;;;;5147255;27;20073;-74
2022/11/02 05:44:35;;;;;;;12.20;1.73;;;10.60;99.90;;;;;;5143182;27;20092;-74
2022/11/02 05:47:02;;;;;;;16.60;5.22;;;10.90;99.90;;;;;;5110866;27;20394;-73
2022/11/02 05:49:28;;;;;;;12.30;2.42;;;10.60;99.90;;;;;;5122670;27;20042;-73
2022/11/02 05:51:54;;;;;;;14.68;2.42;;;10.60;99.90;;;;;;5151892;27;20029;-74
2022/11/02 05:54:20;;;;;;;8.13;1.23;;;11.80;99.90;;;;;;5107042;27;20515;-73
2022/11/02 05:56:45;;;;;;;8.60;1.60;;;11.30;99.90;;;;;;5125470;27;20042;-74
2022/11/02 05:59:11;;;;;;;8.68;1.48;;;10.50;99.90;;;;;;5147136;27;20034;-74
2022/11/02 06:01:37;;;;;;;9.02;1.90;;;10.60;99.90;;;;;;5133699;27;20035;-74
2022/11/02 06:04:04;;;;;;;8.88;1.73;;;11.20;99.90;;;;;;5133975;27;20334;-75
2022/11/02 06:06:30;;;;;;;13.48;2.15;;;11.10;99.90;;;;;;5117175;27;20089;-74
2022/11/02 06:08:55;;;;;;;17.23;2.40;;;11.60;99.90;;;;;;5125674;27;20070;-75
2022/11/02 06:11:21;;;;;;;11.10;2.58;;;10.60;99.90;;;;;;5126939;27;20039;-74
2022/11/02 06:13:49;;;;;;;10.13;1.75;;;10.50;99.90;;;;;;5144227;27;20110;-75
2022/11/02 06:16:16;;;;;;;13.73;2.42;;;10.50;99.90;;;;;;5125989;27;20099;-73
2022/11/02 06:18:42;;;;;;;11.48;2.38;;;10.50;99.90;;;;;;5142654;27;20044;-74
2022/11/02 06:21:08;;;;;;;12.60;2.80;;;10.50;99.90;;;;;;5139319;27;20042;-75
2022/11/02 06:23:34;;;;;;;15.38;2.38;;;10.50;99.90;;;;;;5124680;27;20046;-75
2022/11/02 06:26:00;;;;;;;9.43;1.83;;;10.50;99.90;;;;;;5146918;27;20472;-74
2022/11/02 06:28:26;;;;;;;10.95;2.20;;;11.10;99.90;;;;;;5144877;27;20031;-73
2022/11/02 06:30:52;;;;;;;9.73;2.03;;;10.60;99.90;;;;;;5127556;27;20091;-77
2022/11/02 06:33:19;;;;;;;10.98;1.85;;;10.60;99.90;;;;;;5121682;27;20035;-75
2022/11/02 06:35:46;;;;;;;8.55;2.17;;;11.10;99.90;;;;;;5111333;27;20485;-78
2022/11/02 06:38:12;;;;;;;11.27;2.72;;;10.60;99.90;;;;;;5126317;27;20916;-74
2022/11/02 06:40:38;;;;;;;10.40;1.75;;;10.50;99.90;;;;;;5127997;27;20086;-74
2022/11/02 06:43:04;;;;;;;14.90;2.80;;;10.50;99.90;;;;;;5130215;27;20067;-74
2022/11/02 06:45:30;;;;;;;9.27;2.25;;;10.60;99.90;;;;;;5124021;27;20065;-74
2022/11/02 06:47:55;;;;;;;12.77;2.22;;;10.50;99.90;;;;;;5124251;27;20150;-73
2022/11/02 06:50:23;;;;;;;11.30;2.40;;;10.60;99.90;;;;;;5121204;27;20048;-73
2022/11/02 06:52:49;;;;;;;8.38;1.30;;;10.60;99.90;;;;;;5125241;27;20043;-78
2022/11/02 06:55:15;;;;;;;10.75;2.17;;;10.80;99.90;;;;;;5145153;27;20067;-79
2022/11/02 06:57:43;;;;;;;12.75;1.90;;;10.60;99.90;;;;;;5130695;27;20092;-78
2022/11/02 07:00:12;;;;;;;13.13;1.85;;;10.60;99.90;;;;;;5112841;27;20058;-75
2022/11/02 07:02:38;;;;;;;9.88;2.13;;;10.60;99.90;;;;;;5109230;27;20402;-74
2022/11/02 07:05:05;;;;;;;16.85;1.65;;;10.50;99.90;;;;;;5150852;27;20377;-77
2022/11/02 07:07:30;;;;;;;10.65;1.92;;;10.50;99.90;;;;;;5124217;27;20047;-77
2022/11/02 07:09:56;;;;;;;13.32;2.33;;;10.80;99.90;;;;;;5124033;27;20035;-73
2022/11/02 07:12:22;;;;;;;16.15;2.33;;;10.60;99.90;;;;;;5129258;27;20035;-73
2022/11/02 07:14:47;;;;;;;13.80;2.40;;;11.80;99.90;;;;;;5146306;27;20505;-74
2022/11/02 07:17:13;;;;;;;11.93;2.22;;;11.90;99.90;;;;;;5148087;27;20085;-76
2022/11/02 07:19:39;;;;;;;14.52;1.63;;;10.70;99.90;;;;;;5130125;27;20047;-76
2022/11/02 07:22:05;;;;;;;16.42;1.92;;;10.60;99.90;;;;;;5144160;27;20043;-78
2022/11/02 07:24:30;;;;;;;10.93;1.80;;;10.60;99.90;;;;;;4754760;27;9999917;-78
2022/11/02 07:26:56;;;;;;;10.02;1.10;;;10.70;99.90;;;;;;5123422;27;20062;-77
2022/11/02 07:29:22;;;;;;;4.60;0.88;;;10.70;99.90;;;;;;5120871;27;20554;-76
2022/11/02 07:31:47;;;;;;;8.48;2.15;;;10.60;99.90;;;;;;5145405;27;20121;-77
2022/11/02 07:34:13;;;;;;;3.40;0.40;;;12.00;99.90;;;;;;5143392;27;20050;-78
2022/11/02 07:36:39;;;;;;;5.35;0.60;;;10.70;99.90;;;;;;5120162;27;20091;-78
2022/11/02 07:39:06;;;;;;;5.85;0.68;;;10.60;99.90;;;;;;5118473;27;20402;-77
2022/11/02 07:41:32;;;;;;;6.03;0.80;;;10.60;99.90;;;;;;5143306;27;20525;-77
2022/11/02 07:43:58;;;;;;;2.67;0.55;;;10.50;99.90;;;;;;5105840;27;20035;-76
2022/11/02 07:46:24;;;;;;;6.47;0.60;;;10.40;99.90;;;;;;5120864;27;20050;-74
2022/11/02 07:48:49;;;;;;;6.45;1.98;;;10.40;99.90;;;;;;5122871;27;20031;-76
2022/11/02 07:51:15;;;;;;;5.00;0.50;;;10.40;99.90;;;;;;5107555;27;20091;-76
2022/11/02 07:53:41;;;;;;;7.13;0.73;;;10.40;99.90;;;;;;5120872;27;20046;-76
2022/11/02 07:56:07;;;;;;;3.33;0.88;;;10.40;99.90;;;;;;5142188;27;20031;-77
2022/11/02 07:58:33;;;;;;;9.43;1.35;;;10.80;99.90;;;;;;5142852;27;20589;-76
2022/11/02 08:00:59;;;;;;;5.05;0.93;;;10.40;99.90;;;;;;5118573;27;20425;-77
2022/11/02 08:03:25;;;;;;;4.78;0.52;;;10.40;99.90;;;;;;5121039;27;20038;-78
2022/11/02 08:05:51;;;;;;;3.00;0.60;;;11.80;99.90;;;;;;5120019;27;20897;-77
2022/11/02 08:08:19;;;;;;;5.38;0.77;;;10.40;99.90;;;;;;5144710;27;20029;-76
2022/11/02 08:10:47;;;;;;;5.40;0.50;;;10.50;99.90;;;;;;5129325;27;20498;-77
2022/11/02 08:13:24;;;;;;;5.07;1.00;;;11.30;99.90;;;;;;5145068;27;20619;-77
2022/11/02 08:15:52;;;;;;;5.00;0.60;;;11.70;99.90;;;;;;5124922;27;20075;-76
2022/11/02 08:18:20;;;;;;;9.63;1.73;;;11.50;99.90;;;;;;5125345;27;20035;-77
2022/11/02 08:20:46;;;;;;;6.30;1.13;;;12.20;99.90;;;;;;5122952;27;20070;-75
2022/11/02 08:23:14;;;;;;;6.63;0.60;;;12.20;99.90;;;;;;5142473;27;20047;-78
2022/11/02 08:25:41;;;;;;;6.43;1.15;;;10.70;99.90;;;;;;5121999;27;20034;-77
2022/11/02 08:28:11;;;;;;;8.27;0.98;;;11.20;99.90;;;;;;5123158;27;20042;-76
2022/11/02 08:30:37;;;;;;;7.25;1.00;;;10.80;99.90;;;;;;5142929;27;20388;-78
2022/11/02 08:33:05;;;;;;;12.02;1.40;;;12.20;99.90;;;;;;5123985;27;20054;-77
2022/11/02 08:35:31;;;;;;;6.95;1.45;;;10.70;99.90;;;;;;5109193;27;20447;-76
2022/11/02 08:37:58;;;;;;;8.93;1.25;;;12.00;99.90;;;;;;5103924;27;20542;-79
2022/11/02 08:40:25;;;;;;;6.55;1.10;;;10.70;99.90;;;;;;5140426;27;20047;-77
2022/11/02 08:42:59;;;;;;;9.93;0.90;;;11.90;99.90;;;;;;5125590;27;20047;-80
2022/11/02 08:45:25;;;;;;;8.38;1.35;;;10.70;99.90;;;;;;5141096;27;20035;-77
2022/11/02 08:47:51;;;;;;;6.47;1.13;;;10.80;99.90;;;;;;5121375;27;20039;-80
2022/11/02 08:50:17;;;;;;;8.30;1.58;;;10.80;99.90;;;;;;5124434;27;20108;-81
2022/11/02 08:52:42;;;;;;;6.63;0.95;;;10.90;99.90;;;;;;5143718;27;20692;-80
2022/11/02 08:55:08;;;;;;;5.70;1.20;;;10.90;99.90;;;;;;5131013;27;20046;-81
2022/11/02 08:57:51;;;;;;;6.65;1.20;;;10.90;99.90;;;;;;5125199;27;20047;-77
2022/11/02 09:00:18;;;;;;;6.05;1.13;;;11.10;99.90;;;;;;5126561;27;20039;-76
2022/11/02 09:02:44;;;;;;;8.77;1.40;;;11.70;99.90;;;;;;5126454;27;20047;-74
2022/11/02 09:05:10;;;;;;;5.75;0.88;;;11.20;99.90;;;;;;5111244;27;20045;-74
2022/11/02 09:07:36;;;;;;;7.47;1.20;;;11.30;99.90;;;;;;5107690;27;20079;-76
2022/11/02 09:10:03;;;;;;;11.30;1.50;;;11.20;99.90;;;;;;5126116;27;20049;-76
2022/11/02 09:12:28;;;;;;;9.68;1.90;;;11.20;99.90;;;;;;5145785;27;20057;-75
2022/11/02 09:14:54;;;;;;;12.65;1.60;;;11.30;99.90;;;;;;5127488;27;20042;-76
2022/11/02 09:17:19;;;;;;;11.55;1.27;;;11.40;99.90;;;;;;5127295;27;20079;-74
2022/11/02 09:19:45;;;;;;;10.63;1.23;;;11.40;99.90;;;;;;5145491;27;20047;-76
2022/11/02 09:22:11;;;;;;;9.27;1.17;;;11.40;99.90;;;;;;5124756;27;20039;-74
2022/11/02 09:24:36;;;;;;;13.93;2.03;;;11.50;99.90;;;;;;5145135;27;20038;-75
2022/11/02 09:27:02;;;;;;;8.55;2.72;;;11.50;99.90;;;;;;5132886;27;20043;-79
2022/11/02 09:29:27;;;;;;;10.18;1.42;;;11.60;99.90;;;;;;5131589;27;20076;-77
2022/11/02 09:31:53;;;;;;;6.07;1.00;;;11.70;99.90;;;;;;5151389;27;20424;-76
2022/11/02 09:34:19;;;;;;;7.53;1.48;;;11.80;99.90;;;;;;5112274;27;20066;-75
2022/11/02 09:36:44;;;;;;;12.73;1.73;;;12.00;99.90;;;;;;5111057;27;20478;-75
2022/11/02 09:39:10;;;;;;;8.55;1.42;;;12.60;99.90;;;;;;5129130;27;20537;-74
2022/11/02 09:41:42;;;;;;;9.20;2.00;;;11.90;99.90;;;;;;5139643;27;20039;-75
2022/11/02 09:44:24;;;;;;;10.25;1.63;;;12.00;99.90;;;;;;5149421;27;20122;-72
2022/11/02 09:46:50;;;;;;;15.25;1.67;;;12.00;99.90;;;;;;5123653;27;20035;-75
2022/11/02 09:49:18;;;;;;;15.00;1.70;;;12.20;99.90;;;;;;5147309;27;20038;-76
2022/11/02 09:51:46;;;;;;;9.20;1.60;;;12.20;99.90;;;;;;5104462;27;20043;-76
2022/11/02 09:54:22;;;;;;;8.75;1.60;;;12.30;99.90;;;;;;5111400;27;20062;-73
2022/11/02 09:56:50;;;;;;;13.10;4.07;;;12.40;99.90;;;;;;5122698;27;20043;-73
2022/11/02 09:59:22;;;;;;;8.45;1.25;;;12.40;99.90;;;;;;5125003;27;20084;-73
2022/11/02 10:01:50;;;;;;;10.82;1.65;;;12.40;99.90;;;;;;5142281;27;20051;-73
2022/11/02 10:04:28;;;;;;;10.10;1.67;;;12.50;99.90;;;;;;5107966;27;20134;-73
2022/11/02 10:07:16;;;;;;;10.93;1.60;;;12.40;99.90;;;;;;5131162;27;20039;-75
2022/11/02 10:10:01;;;;;;;6.30;1.65;;;12.60;99.90;;;;;;5144626;27;20053;-74
2022/11/02 10:12:35;;;;;;;5.97;1.67;;;12.60;99.90;;;;;;5124711;27;20521;-75
2022/11/02 10:15:24;;;;;;;10.10;1.52;;;12.70;99.90;;;;;;5145967;27;20050;-73
2022/11/02 10:17:55;;;;;;;9.82;1.63;;;12.80;99.90;;;;;;5146527;27;20413;-74
2022/11/02 10:20:46;;;;;;;8.68;1.88;;;12.70;99.90;;;;;;5146114;27;20604;-74
2022/11/02 10:23:30;;;;;;;10.23;1.15;;;12.70;99.90;;;;;;5111975;27;20336;-75
2022/11/02 10:25:58;;;;;;;12.48;1.98;;;12.70;99.90;;;;;;5124704;27;20512;-75
2022/11/02 10:28:29;;;;;;;10.20;1.17;;;12.70;99.90;;;;;;5110645;27;20572;-73
2022/11/02 10:30:56;;;;;;;6.38;0.95;;;12.70;99.90;;;;;;5144503;27;20066;-73
2022/11/02 10:33:26;;;;;;;18.73;2.45;;;12.80;99.90;;;;;;5126368;27;20502;-73
2022/11/02 10:36:12;;;;;;;13.98;1.70;;;12.80;99.90;;;;;;5123034;27;20818;-75
2022/11/02 10:39:05;;;;;;;12.32;1.58;;;12.80;99.90;;;;;;5126913;27;20054;-73
2022/11/02 10:42:03;;;;;;;14.98;1.73;;;12.90;99.90;;;;;;5108899;27;20232;-73
2022/11/02 10:44:43;;;;;;;6.30;1.40;;;12.90;99.90;;;;;;5102749;27;20483;-74
2022/11/02 10:47:21;;;;;;;8.10;1.30;;;12.80;99.90;;;;;;5127815;27;20066;-73
2022/11/02 10:50:05;;;;;;;10.60;2.13;;;12.80;99.90;;;;;;5108666;27;20457;-72
2022/11/02 10:52:37;;;;;;;10.57;1.95;;;12.90;99.90;;;;;;5126354;27;20060;-73
2022/11/02 10:55:12;;;;;;;10.43;1.42;;;12.90;99.90;;;;;;5123940;27;20059;-72
2022/11/02 10:57:39;;;;;;;7.68;1.88;;;13.10;99.90;;;;;;5142396;27;20061;-72
2022/11/02 11:00:27;;;;;;;10.38;1.92;;;13.00;99.90;;;;;;5108168;27;20604;-73
2022/11/02 11:03:08;;;;;;;11.52;1.67;;;13.10;99.90;;;;;;5123523;27;20154;-74
2022/11/02 11:05:55;;;;;;;13.38;1.90;;;13.10;99.90;;;;;;5136337;27;20043;-73
2022/11/02 11:08:43;;;;;;;13.43;1.67;;;13.60;99.90;;;;;;5145494;27;20054;-75
2022/11/02 11:11:30;;;;;;;10.15;1.33;;;13.20;99.90;;;;;;5120419;27;20050;-74
2022/11/02 11:14:01;;;;;;;8.70;1.33;;;13.20;99.90;;;;;;5110727;27;20057;-74
2022/11/02 11:16:35;;;;;;;12.88;1.55;;;13.10;99.90;;;;;;5121379;27;20071;-74
2022/11/02 11:19:03;;;;;;;6.43;1.63;;;13.10;99.90;;;;;;5117157;27;20122;-74
2022/11/02 11:21:40;;;;;;;6.97;1.58;;;13.10;99.90;;;;;;5140103;27;20382;-74
2022/11/02 11:24:26;;;;;;;10.73;2.10;;;13.30;99.90;;;;;;5103133;27;20156;-75
2022/11/02 11:27:07;;;;;;;10.32;1.35;;;13.80;99.90;;;;;;5102569;27;20043;-74
2022/11/02 11:29:36;;;;;;;6.82;1.25;;;12.90;99.90;;;;;;5137572;27;20039;-74
2022/11/02 11:32:03;;;;;;;11.35;2.22;;;12.70;99.90;;;;;;5122897;27;20115;-74
2022/11/02 11:34:31;;;;;;;9.55;1.10;;;13.00;99.90;;;;;;5106526;27;20439;-74
2022/11/02 11:37:14;;;;;;;7.93;1.55;;;12.70;99.90;;;;;;5139110;27;20042;-74
2022/11/02 11:39:43;;;;;;;12.55;1.23;;;12.90;99.90;;;;;;5123579;27;20502;-74
2022/11/02 11:42:18;;;;;;;7.65;1.30;;;13.60;99.90;;;;;;5105364;27;20050;-74
2022/11/02 11:44:51;;;;;;;6.50;0.90;;;13.30;99.90;;;;;;4769850;27;9999689;-75
2022/11/02 11:47:24;;;;;;;8.18;1.40;;;13.40;99.90;;;;;;5124054;27;20050;-74
2022/11/02 11:49:50;;;;;;;7.72;0.80;;;14.00;99.90;;;;;;5124427;27;20031;-74
2022/11/02 11:52:23;;;;;;;6.00;1.45;;;13.40;99.90;;;;;;5122327;27;20137;-73
2022/11/02 11:54:54;;;;;;;6.65;0.93;;;14.20;99.90;;;;;;5107470;27;20532;-73
2022/11/02 11:57:28;;;;;;;8.73;1.80;;;13.50;99.90;;;;;;5122193;27;20451;-74
2022/11/02 11:59:57;;;;;;;9.90;2.25;;;13.50;99.90;;;;;;5110137;27;20142;-73
2022/11/02 12:02:34;;;;;;;12.10;2.42;;;13.50;99.90;;;;;;5147503;27;20050;-73
2022/11/02 12:05:12;;;;;;;9.95;1.55;;;13.50;99.90;;;;;;5120572;27;20035;-72
2022/11/02 12:08:05;;;;;;;9.75;1.55;;;13.50;99.90;;;;;;5137959;27;20050;-73
2022/11/02 12:10:46;;;;;;;10.15;1.65;;;13.60;99.90;;;;;;5142246;27;20067;-73
2022/11/02 12:13:42;;;;;;;4.43;0.70;;;13.70;99.90;;;;;;5140435;27;20160;-73
2022/11/02 12:16:27;;;;;;;7.53;1.15;;;13.70;99.90;;;;;;5104750;27;20107;-73
2022/11/02 12:19:14;;;;;;;9.88;1.60;;;13.70;99.90;;;;;;5107230;27;20130;-73
2022/11/02 12:21:57;;;;;;;8.60;1.95;;;13.70;99.90;;;;;;5107492;27;20126;-73
2022/11/02 12:24:45;;;;;;;8.38;1.13;;;13.70;99.90;;;;;;5121753;27;20497;-73
2022/11/02 12:27:21;;;;;;;12.57;1.65;;;13.80;99.90;;;;;;5122308;27;20071;-73
2022/11/02 12:30:26;;;;;;;6.85;1.33;;;13.80;99.90;;;;;;5147192;27;20050;-73
2022/11/02 12:33:03;;;;;;;9.57;1.80;;;13.80;99.90;;;;;;5123573;27;20411;-73
2022/11/02 12:35:35;;;;;;;10.55;2.05;;;14.30;99.90;;;;;;5127440;27;20405;-73
2022/11/02 12:38:13;;;;;;;15.55;1.98;;;14.10;99.90;;;;;;5110802;27;20043;-75
2022/11/02 12:40:47;;;;;;;8.15;1.25;;;14.00;99.90;;;;;;5106051;27;20039;-72
2022/11/02 12:43:29;;;;;;;9.63;1.45;;;14.60;99.90;;;;;;5148668;27;20072;-72
2022/11/02 12:46:22;;;;;;;9.23;1.60;;;14.00;99.90;;;;;;5123916;27;20055;-73
2022/11/02 12:49:12;;;;;;;8.05;1.30;;;14.10;99.90;;;;;;5112790;27;20039;-73
2022/11/02 12:52:16;;;;;;;5.50;1.25;;;14.00;99.90;;;;;;5121126;27;20497;-74
2022/11/02 12:54:46;;;;;;;6.93;0.90;;;13.90;99.90;;;;;;5125338;27;20046;-73
2022/11/02 12:57:16;;;;;;;9.45;1.48;;;13.90;99.90;;;;;;5126578;27;20114;-73
2022/11/02 12:59:43;;;;;;;11.98;1.25;;;13.80;99.90;;;;;;5144138;27;20060;-73
2022/11/02 13:02:18;;;;;;;11.48;1.55;;;13.70;99.90;;;;;;5145957;27;20043;-73
2022/11/02 13:04:58;;;;;;;13.52;2.22;;;13.70;99.90;;;;;;5126418;27;20052;-73
2022/11/02 13:07:49;;;;;;;8.30;1.40;;;13.60;99.90;;;;;;5108705;27;20043;-72
2022/11/02 13:10:27;;;;;;;8.70;1.65;;;13.50;99.90;;;;;;5105775;27;20043;-73
2022/11/02 13:12:58;;;;;;;17.13;1.80;;;13.60;99.90;;;;;;5126593;27;20072;-73
2022/11/02 13:15:26;;;;;;;10.60;1.60;;;13.70;99.90;;;;;;5126157;27;20050;-72